createdAt,value
2022-10-09T00:01:32.131Z,92.89
2022-10-09T00:03:59.521Z,92.37
2022-10-09T00:06:28.385Z,92.13
2022-10-09T00:08:55.087Z,92.29
2022-10-09T00:11:24.510Z,91.55
2022-10-09T00:13:51.742Z,91.69
2022-10-09T00:16:21.639Z,91.79
2022-10-09T00:18:48.537Z,91.76
2022-10-09T00:21:19.697Z,91.60
2022-10-09T00:23:46.505Z,91.64
2022-10-09T00:26:13.611Z,91.64
2022-10-09T00:28:40.407Z,91.67
2022-10-09T00:31:08.400Z,91.51
2022-10-09T00:33:36.857Z,92.08
2022-10-09T00:36:04.223Z,92.13
2022-10-09T00:38:30.787Z,92.02
2022-10-09T00:40:57.386Z,92.39
2022-10-09T00:43:42.865Z,92.61
2022-10-09T00:46:20.807Z,92.45
2022-10-09T00:48:55.059Z,92.48
2022-10-09T00:51:21.627Z,92.58
2022-10-09T00:53:48.227Z,92.26
2022-10-09T00:56:15.131Z,92.74
2022-10-09T00:58:41.682Z,92.92
2022-10-09T01:01:08.328Z,92.85
2022-10-09T01:03:34.906Z,92.63
2022-10-09T01:06:16.105Z,92.36
2022-10-09T01:08:49.517Z,92.50
2022-10-09T01:11:31.079Z,91.76
2022-10-09T01:14:04.330Z,91.82
2022-10-09T01:16:35.818Z,92.64
2022-10-09T01:19:11.019Z,92.86
2022-10-09T01:21:42.931Z,92.64
2022-10-09T01:24:20.718Z,92.66
2022-10-09T01:27:03.789Z,92.78
2022-10-09T01:29:35.409Z,92.86
2022-10-09T01:32:04.428Z,92.61
2022-10-09T01:34:32.119Z,92.33
2022-10-09T01:36:59.298Z,92.27
2022-10-09T01:39:28.623Z,92.39
2022-10-09T01:41:57.069Z,92.14
2022-10-09T01:44:26.186Z,92.44
2022-10-09T01:46:55.944Z,91.94
2022-10-09T01:49:39.553Z,91.74
2022-10-09T01:52:19.737Z,92.27
2022-10-09T01:54:58.516Z,92.08
2022-10-09T01:57:32.205Z,92.03
2022-10-09T02:00:01.828Z,91.87
2022-10-09T02:02:39.320Z,92.13
2022-10-09T02:05:07.624Z,91.86
2022-10-09T02:07:34.804Z,91.97
2022-10-09T02:10:03.370Z,92.15
2022-10-09T02:12:37.199Z,92.14
2022-10-09T02:15:04.465Z,92.21
2022-10-09T02:17:34.884Z,92.29
2022-10-09T02:20:06.477Z,92.31
2022-10-09T02:22:33.265Z,92.25
2022-10-09T02:25:04.786Z,92.07
2022-10-09T02:27:33.629Z,91.95
2022-10-09T02:30:01.214Z,91.80
2022-10-09T02:32:28.337Z,92.02
2022-10-09T02:34:54.917Z,92.16
2022-10-09T02:37:21.490Z,92.34
2022-10-09T02:39:48.215Z,92.19
2022-10-09T02:42:14.816Z,91.95
2022-10-09T02:44:42.644Z,91.75
2022-10-09T02:47:09.337Z,91.78
2022-10-09T02:49:35.877Z,91.97
2022-10-09T02:52:02.419Z,92.31
2022-10-09T02:54:28.872Z,92.38
2022-10-09T02:56:55.395Z,92.72
2022-10-09T02:59:21.871Z,92.72
2022-10-09T03:01:49.837Z,92.30
2022-10-09T03:04:16.386Z,92.52
2022-10-09T03:06:43.107Z,92.08
2022-10-09T03:09:09.620Z,92.38
2022-10-09T03:11:36.212Z,92.59
2022-10-09T03:14:02.754Z,92.75
2022-10-09T03:16:29.362Z,92.73
2022-10-09T03:18:57.252Z,92.96
2022-10-09T03:21:25.820Z,93.03
2022-10-09T03:23:52.873Z,92.98
2022-10-09T03:26:21.598Z,93.02
2022-10-09T03:28:49.703Z,92.76
2022-10-09T03:31:46.459Z,92.75
2022-10-09T03:34:06.224Z,93.06
2022-10-09T03:36:32.770Z,93.07
2022-10-09T03:38:59.308Z,93.41
2022-10-09T03:41:25.788Z,93.07
2022-10-09T03:43:52.621Z,93.40
2022-10-09T03:46:19.155Z,93.14
2022-10-09T03:48:45.834Z,92.99
2022-10-09T03:51:13.709Z,93.12
2022-10-09T03:53:40.251Z,92.65
2022-10-09T03:56:07.104Z,93.04
2022-10-09T03:58:33.688Z,92.96
2022-10-09T04:01:00.236Z,93.15
2022-10-09T04:03:26.875Z,93.06
2022-10-09T04:05:53.406Z,93.09
2022-10-09T04:08:21.626Z,92.83
2022-10-09T04:10:48.101Z,93.18
2022-10-09T04:13:14.618Z,93.17
2022-10-09T04:15:49.866Z,92.80
2022-10-09T04:18:16.963Z,92.91
2022-10-09T04:20:44.890Z,92.74
2022-10-09T04:23:11.424Z,92.84
2022-10-09T04:25:39.273Z,92.83
2022-10-09T04:28:05.884Z,92.96
2022-10-09T04:30:32.452Z,93.01
2022-10-09T04:32:58.994Z,92.79
2022-10-09T04:35:25.497Z,92.98
2022-10-09T04:37:52.104Z,92.29
2022-10-09T04:40:18.699Z,92.53
2022-10-09T04:42:46.972Z,92.57
2022-10-09T04:45:13.647Z,92.42
2022-10-09T04:47:40.245Z,92.67
2022-10-09T04:50:07.910Z,92.42
2022-10-09T04:52:34.472Z,92.92
2022-10-09T04:55:01.172Z,93.01
2022-10-09T04:57:27.765Z,92.86
2022-10-09T04:59:55.779Z,92.65
2022-10-09T05:02:22.375Z,92.61
2022-10-09T05:04:48.860Z,92.50
2022-10-09T05:07:15.459Z,92.73
2022-10-09T05:09:41.957Z,92.31
2022-10-09T05:12:08.579Z,92.25
2022-10-09T05:14:35.144Z,92.40
2022-10-09T05:17:13.780Z,92.36
2022-10-09T05:19:41.248Z,92.82
2022-10-09T05:22:07.732Z,92.41
2022-10-09T05:24:34.342Z,91.99
2022-10-09T05:27:00.882Z,92.32
2022-10-09T05:29:27.389Z,92.33
2022-10-09T05:31:53.996Z,92.26
2022-10-09T05:34:22.058Z,92.45
2022-10-09T05:36:48.556Z,92.11
2022-10-09T05:39:16.039Z,92.16
2022-10-09T05:41:42.533Z,92.16
2022-10-09T05:44:09.123Z,92.76
2022-10-09T05:46:35.707Z,92.33
2022-10-09T05:49:04.916Z,92.83
2022-10-09T05:51:34.237Z,92.91
2022-10-09T05:54:01.025Z,92.73
2022-10-09T05:56:29.074Z,92.96
2022-10-09T05:58:57.495Z,92.61
2022-10-09T06:01:25.964Z,92.85
2022-10-09T06:03:54.443Z,92.70
2022-10-09T06:06:22.841Z,93.10
2022-10-09T06:08:50.980Z,93.25
2022-10-09T06:11:19.710Z,93.28
2022-10-09T06:13:46.905Z,92.98
2022-10-09T06:16:15.139Z,93.22
2022-10-09T06:18:46.811Z,92.96
2022-10-09T06:21:15.943Z,93.25
2022-10-09T06:23:42.870Z,93.16
2022-10-09T06:26:12.923Z,92.70
2022-10-09T06:28:40.198Z,92.81
2022-10-09T06:31:08.654Z,93.38
2022-10-09T06:33:36.970Z,93.25
2022-10-09T06:36:10.378Z,93.63
2022-10-09T06:38:37.783Z,93.81
2022-10-09T06:41:06.086Z,93.48
2022-10-09T06:43:34.473Z,93.86
2022-10-09T06:46:02.025Z,93.74
2022-10-09T06:48:29.229Z,93.37
2022-10-09T06:50:55.738Z,94.08
2022-10-09T06:53:22.367Z,93.85
2022-10-09T06:55:52.502Z,94.09
2022-10-09T06:58:19.075Z,94.44
2022-10-09T07:00:47.161Z,94.44
2022-10-09T07:03:14.618Z,94.31
2022-10-09T07:05:41.180Z,93.64
2022-10-09T07:08:07.802Z,93.90
2022-10-09T07:10:34.522Z,94.03
2022-10-09T07:13:01.137Z,94.04
2022-10-09T07:15:27.722Z,93.94
2022-10-09T07:17:55.625Z,94.24
2022-10-09T07:20:22.111Z,94.67
2022-10-09T07:22:48.844Z,94.58
2022-10-09T07:25:15.673Z,94.31
2022-10-09T07:27:42.209Z,94.47
2022-10-09T07:30:09.717Z,94.87
2022-10-09T07:32:36.295Z,94.94
2022-10-09T07:35:04.924Z,94.85
2022-10-09T07:37:31.523Z,95.13
2022-10-09T07:39:58.041Z,95.43
2022-10-09T07:42:24.649Z,95.59
2022-10-09T07:44:51.378Z,95.19
2022-10-09T07:47:17.957Z,95.14
2022-10-09T07:49:44.495Z,95.07
2022-10-09T07:52:12.514Z,94.56
2022-10-09T07:54:39.022Z,94.76
2022-10-09T07:57:05.584Z,95.07
2022-10-09T07:59:32.098Z,95.09
2022-10-09T08:01:58.738Z,94.72
2022-10-09T08:04:25.285Z,95.56
2022-10-09T08:06:51.814Z,95.16
2022-10-09T08:09:19.910Z,94.78
2022-10-09T08:11:46.516Z,95.32
2022-10-09T08:14:16.739Z,95.36
2022-10-09T08:16:45.805Z,94.92
2022-10-09T08:19:12.324Z,95.17
2022-10-09T08:21:39.011Z,95.23
2022-10-09T08:24:05.869Z,94.86
2022-10-09T08:26:33.792Z,94.53
2022-10-09T08:29:02.155Z,94.39
2022-10-09T08:31:29.316Z,94.26
2022-10-09T08:33:57.625Z,93.87
2022-10-09T08:36:25.288Z,93.54
2022-10-09T08:38:52.502Z,93.51
2022-10-09T08:41:34.712Z,92.88
2022-10-09T08:44:06.108Z,92.69
2022-10-09T08:46:41.533Z,92.24
2022-10-09T08:49:18.094Z,91.83
2022-10-09T08:51:44.794Z,91.25
2022-10-09T08:54:19.170Z,91.13
2022-10-09T08:56:47.530Z,90.72
2022-10-09T08:59:15.452Z,89.69
2022-10-09T09:01:48.459Z,89.10
2022-10-09T09:04:34.637Z,88.79
2022-10-09T09:07:11.999Z,88.21
2022-10-09T09:09:47.606Z,87.79
2022-10-09T09:12:21.690Z,86.36
2022-10-09T09:15:04.145Z,85.87
2022-10-09T09:17:40.952Z,84.06
2022-10-09T09:20:15.014Z,84.06
2022-10-09T09:22:47.371Z,82.93
2022-10-09T09:25:22.542Z,82.55
2022-10-09T09:27:49.841Z,81.13
2022-10-09T09:30:21.072Z,81.64
2022-10-09T09:32:54.709Z,77.54
2022-10-09T09:35:28.592Z,77.60
2022-10-09T09:37:55.506Z,76.08
2022-10-09T09:40:45.868Z,75.11
2022-10-09T09:43:16.583Z,75.47
2022-10-09T09:45:45.220Z,74.32
2022-10-09T09:48:16.105Z,74.09
2022-10-09T09:50:56.277Z,73.81
2022-10-09T09:53:34.670Z,72.21
2022-10-09T09:56:01.332Z,72.95
2022-10-09T09:58:34.039Z,71.75
2022-10-09T10:01:03.860Z,69.30
2022-10-09T10:03:31.158Z,70.68
2022-10-09T10:05:57.933Z,69.47
2022-10-09T10:08:26.393Z,65.61
2022-10-09T10:10:55.525Z,66.16
2022-10-09T10:13:28.244Z,62.50
2022-10-09T10:15:56.890Z,63.86
2022-10-09T10:18:27.074Z,64.91
2022-10-09T10:20:55.262Z,62.27
2022-10-09T10:23:25.148Z,62.49
2022-10-09T10:25:54.089Z,61.64
2022-10-09T10:28:24.760Z,61.52
2022-10-09T10:30:55.104Z,61.65
2022-10-09T10:33:27.310Z,60.10
2022-10-09T10:35:56.223Z,57.89
2022-10-09T10:38:28.144Z,56.10
2022-10-09T10:40:58.599Z,53.89
2022-10-09T10:43:32.665Z,55.40
2022-10-09T10:46:05.850Z,55.55
2022-10-09T10:48:39.277Z,52.64
2022-10-09T10:51:15.892Z,52.73
2022-10-09T10:53:57.012Z,51.51
2022-10-09T10:56:29.466Z,51.08
2022-10-09T10:59:13.322Z,50.09
2022-10-09T11:01:48.361Z,47.78
2022-10-09T11:04:36.945Z,48.12
2022-10-09T11:07:15.250Z,48.98
2022-10-09T11:09:52.117Z,50.28
2022-10-09T11:12:46.830Z,49.06
2022-10-09T11:15:24.160Z,48.24
2022-10-09T11:17:58.996Z,45.28
2022-10-09T11:20:48.377Z,44.04
2022-10-09T11:23:26.759Z,43.92
2022-10-09T11:26:02.744Z,46.08
2022-10-09T11:28:35.538Z,43.90
2022-10-09T11:31:12.474Z,44.17
2022-10-09T11:33:45.307Z,43.04
2022-10-09T11:36:18.445Z,43.33
2022-10-09T11:38:48.622Z,44.32
2022-10-09T11:41:15.623Z,42.26
2022-10-09T11:43:54.454Z,43.27
2022-10-09T11:46:33.705Z,43.93
2022-10-09T11:49:10.119Z,42.46
2022-10-09T11:51:47.344Z,43.58
2022-10-09T11:54:16.849Z,43.71
2022-10-09T11:56:53.469Z,42.92
2022-10-09T11:59:23.044Z,41.34
2022-10-09T12:01:49.574Z,40.54
2022-10-09T12:04:32.385Z,40.61
2022-10-09T12:07:12.059Z,40.99
2022-10-09T12:09:41.485Z,39.81
2022-10-09T12:12:20.829Z,40.46
2022-10-09T12:14:49.837Z,40.63
2022-10-09T12:17:29.220Z,41.01
2022-10-09T12:20:03.845Z,40.11
2022-10-09T12:22:35.057Z,39.73
2022-10-09T12:25:06.757Z,40.44
2022-10-09T12:27:36.146Z,41.33
2022-10-09T12:30:15.736Z,41.28
2022-10-09T12:32:46.182Z,42.32
2022-10-09T12:35:20.970Z,40.90
2022-10-09T12:37:48.961Z,41.44
2022-10-09T12:40:18.218Z,40.82
2022-10-09T12:42:45.158Z,40.35
2022-10-09T12:45:16.564Z,41.16
2022-10-09T12:47:43.192Z,39.85
2022-10-09T12:50:22.094Z,40.32
2022-10-09T12:52:52.163Z,41.93
2022-10-09T12:55:25.689Z,39.98
2022-10-09T12:57:53.248Z,39.75
2022-10-09T13:00:19.950Z,39.07
2022-10-09T13:02:46.861Z,41.78
2022-10-09T13:05:13.697Z,39.26
2022-10-09T13:07:40.522Z,39.77
2022-10-09T13:10:18.120Z,40.06
2022-10-09T13:12:50.919Z,40.93
2022-10-09T13:15:30.506Z,40.60
2022-10-09T13:17:57.218Z,40.15
2022-10-09T13:20:27.605Z,39.78
2022-10-09T13:22:58.568Z,40.22
2022-10-09T13:25:28.665Z,40.63
2022-10-09T13:27:55.241Z,39.77
2022-10-09T13:30:22.597Z,39.12
2022-10-09T13:32:49.275Z,38.82
2022-10-09T13:35:16.292Z,39.38
2022-10-09T13:37:42.832Z,39.04
2022-10-09T13:40:13.874Z,39.11
2022-10-09T13:42:42.672Z,38.58
2022-10-09T13:45:10.621Z,40.54
2022-10-09T13:47:37.196Z,40.06
2022-10-09T13:50:04.402Z,39.05
2022-10-09T13:52:31.066Z,39.59
2022-10-09T13:54:57.598Z,38.85
2022-10-09T13:57:24.279Z,38.38
2022-10-09T13:59:52.144Z,38.97
2022-10-09T14:02:18.894Z,38.78
2022-10-09T14:04:45.500Z,39.38
2022-10-09T14:07:12.146Z,38.98
2022-10-09T14:09:38.978Z,39.26
2022-10-09T14:12:05.677Z,38.76
2022-10-09T14:14:32.393Z,38.14
2022-10-09T14:17:00.477Z,37.78
2022-10-09T14:19:27.027Z,37.42
2022-10-09T14:21:53.620Z,38.03
2022-10-09T14:24:20.138Z,38.05
2022-10-09T14:26:51.357Z,37.52
2022-10-09T14:29:18.168Z,37.15
2022-10-09T14:31:44.969Z,37.29
2022-10-09T14:34:13.667Z,37.43
2022-10-09T14:36:40.260Z,37.44
2022-10-09T14:39:06.828Z,37.64
2022-10-09T14:41:37.673Z,36.92
2022-10-09T14:44:04.725Z,35.96
2022-10-09T14:46:31.248Z,36.46
2022-10-09T14:48:57.837Z,36.53
2022-10-09T14:51:27.118Z,36.75
2022-10-09T14:53:56.578Z,36.04
2022-10-09T14:56:23.101Z,36.48
2022-10-09T14:58:49.874Z,36.79
2022-10-09T15:01:17.979Z,37.87
2022-10-09T15:03:45.025Z,37.04
2022-10-09T15:06:13.006Z,37.19
2022-10-09T15:08:42.073Z,38.41
2022-10-09T15:11:10.235Z,37.52
2022-10-09T15:13:37.079Z,38.15
2022-10-09T15:16:06.368Z,39.54
2022-10-09T15:18:33.446Z,39.06
2022-10-09T15:21:00.042Z,40.33
2022-10-09T15:23:26.761Z,39.44
2022-10-09T15:25:56.301Z,38.08
2022-10-09T15:28:23.094Z,38.79
2022-10-09T15:30:52.138Z,38.69
2022-10-09T15:33:18.766Z,37.95
2022-10-09T15:35:45.530Z,36.99
2022-10-09T15:38:14.010Z,37.38
2022-10-09T15:40:43.440Z,38.13
2022-10-09T15:43:11.806Z,38.76
2022-10-09T15:45:38.605Z,39.05
2022-10-09T15:48:05.562Z,39.31
2022-10-09T15:50:35.396Z,39.12
2022-10-09T15:53:02.237Z,38.96
2022-10-09T15:55:28.773Z,40.03
2022-10-09T15:57:55.321Z,40.77
2022-10-09T16:00:23.428Z,40.46
2022-10-09T16:02:50.207Z,40.44
2022-10-09T16:05:16.925Z,40.65
2022-10-09T16:07:43.446Z,41.46
2022-10-09T16:10:10.513Z,42.73
2022-10-09T16:12:37.074Z,44.65
2022-10-09T16:15:04.115Z,44.81
2022-10-09T16:17:32.038Z,45.57
2022-10-09T16:19:58.573Z,46.50
2022-10-09T16:22:25.249Z,47.22
2022-10-09T16:24:51.786Z,48.39
2022-10-09T16:27:18.373Z,48.63
2022-10-09T16:29:44.899Z,49.27
2022-10-09T16:32:11.502Z,49.64
2022-10-09T16:34:39.377Z,50.01
2022-10-09T16:37:05.909Z,50.87
2022-10-09T16:39:32.443Z,51.81
2022-10-09T16:41:59.021Z,52.42
2022-10-09T16:44:25.583Z,53.42
2022-10-09T16:46:52.533Z,54.72
2022-10-09T16:49:22.814Z,55.93
2022-10-09T16:51:52.941Z,57.41
2022-10-09T16:54:19.507Z,58.31
2022-10-09T16:56:46.073Z,58.74
2022-10-09T16:59:12.843Z,59.07
2022-10-09T17:01:39.678Z,59.85
2022-10-09T17:04:06.168Z,61.05
2022-10-09T17:06:32.833Z,61.19
2022-10-09T17:09:00.680Z,62.00
2022-10-09T17:11:29.709Z,62.22
2022-10-09T17:13:57.136Z,62.61
2022-10-09T17:16:26.379Z,63.61
2022-10-09T17:18:53.087Z,64.31
2022-10-09T17:21:20.099Z,65.36
2022-10-09T17:23:47.453Z,65.72
2022-10-09T17:26:17.236Z,66.17
2022-10-09T17:28:44.955Z,66.76
2022-10-09T17:31:15.491Z,67.17
2022-10-09T17:33:43.305Z,67.78
2022-10-09T17:36:10.461Z,68.06
2022-10-09T17:38:37.114Z,68.21
2022-10-09T17:41:04.337Z,68.81
2022-10-09T17:43:32.617Z,69.27
2022-10-09T17:45:59.419Z,69.80
2022-10-09T17:48:26.366Z,70.58
2022-10-09T17:50:54.423Z,70.80
2022-10-09T17:53:21.117Z,70.97
2022-10-09T17:55:47.646Z,71.20
2022-10-09T17:58:14.181Z,71.16
2022-10-09T18:00:42.149Z,72.01
2022-10-09T18:03:08.767Z,72.54
2022-10-09T18:05:41.327Z,73.34
2022-10-09T18:08:08.190Z,73.34
2022-10-09T18:10:34.996Z,73.30
2022-10-09T18:13:01.581Z,73.78
2022-10-09T18:15:28.092Z,73.65
2022-10-09T18:17:56.089Z,74.32
2022-10-09T18:20:22.771Z,74.50
2022-10-09T18:22:49.378Z,74.74
2022-10-09T18:25:16.058Z,74.90
2022-10-09T18:27:42.666Z,75.44
2022-10-09T18:30:10.675Z,75.70
2022-10-09T18:32:37.245Z,75.72
2022-10-09T18:35:05.666Z,76.21
2022-10-09T18:37:33.214Z,76.08
2022-10-09T18:39:59.735Z,76.42
2022-10-09T18:42:26.570Z,76.18
2022-10-09T18:44:53.090Z,76.13
2022-10-09T18:47:21.809Z,76.88
2022-10-09T18:49:52.163Z,77.42
2022-10-09T18:52:21.522Z,77.67
2022-10-09T18:54:50.389Z,78.05
2022-10-09T18:57:17.002Z,77.61
2022-10-09T18:59:43.611Z,77.65
2022-10-09T19:02:10.210Z,77.80
2022-10-09T19:04:36.802Z,77.78
2022-10-09T19:07:03.428Z,77.99
2022-10-09T19:09:31.333Z,77.91
2022-10-09T19:11:57.982Z,78.29
2022-10-09T19:14:24.501Z,78.60
2022-10-09T19:16:51.103Z,79.14
2022-10-09T19:19:17.642Z,79.77
2022-10-09T19:21:44.417Z,80.02
2022-10-09T19:24:12.104Z,80.42
2022-10-09T19:26:40.826Z,81.10
2022-10-09T19:29:07.741Z,80.96
2022-10-09T19:31:36.000Z,81.72
2022-10-09T19:34:04.522Z,81.65
2022-10-09T19:36:31.580Z,81.68
2022-10-09T19:38:58.127Z,81.35
2022-10-09T19:41:24.995Z,81.40
2022-10-09T19:43:52.906Z,81.29
2022-10-09T19:46:19.825Z,81.35
2022-10-09T19:48:46.888Z,81.59
2022-10-09T19:51:16.415Z,82.33
2022-10-09T19:53:42.926Z,83.10
2022-10-09T19:56:10.901Z,83.64
2022-10-09T19:58:39.687Z,83.60
2022-10-09T20:01:09.103Z,84.23
2022-10-09T20:03:35.666Z,84.52
2022-10-09T20:06:02.455Z,84.31
2022-10-09T20:08:29.084Z,85.60
2022-10-09T20:10:57.817Z,85.52
2022-10-09T20:13:24.343Z,86.82
2022-10-09T20:15:50.937Z,86.71
2022-10-09T20:18:18.897Z,87.14
2022-10-09T20:20:47.389Z,86.93
2022-10-09T20:23:14.614Z,87.12
2022-10-09T20:25:41.144Z,87.22
2022-10-09T20:28:07.849Z,87.40
2022-10-09T20:30:34.446Z,87.30
2022-10-09T20:33:01.382Z,87.49
2022-10-09T20:35:29.609Z,87.80
2022-10-09T20:37:57.749Z,87.27
2022-10-09T20:40:24.391Z,87.64
2022-10-09T20:42:51.291Z,87.31
2022-10-09T20:45:18.185Z,86.61
2022-10-09T20:47:44.704Z,86.77
2022-10-09T20:50:11.221Z,87.06
2022-10-09T20:52:39.129Z,87.35
2022-10-09T20:55:06.735Z,87.31
2022-10-09T20:57:33.484Z,87.31
2022-10-09T21:00:00.030Z,86.94
2022-10-09T21:02:26.557Z,86.89
2022-10-09T21:04:53.073Z,87.14
2022-10-09T21:07:19.616Z,87.16
2022-10-09T21:09:47.611Z,86.92
2022-10-09T21:12:14.276Z,87.54
2022-10-09T21:14:40.802Z,86.26
2022-10-09T21:17:07.308Z,86.59
2022-10-09T21:19:33.858Z,87.12
2022-10-09T21:22:00.375Z,86.35
2022-10-09T21:24:26.864Z,87.22
2022-10-09T21:26:54.730Z,88.18
2022-10-09T21:29:21.369Z,88.37
2022-10-09T21:31:47.954Z,88.39
2022-10-09T21:34:14.516Z,88.61
2022-10-09T21:37:02.296Z,88.28
2022-10-09T21:39:30.235Z,88.04
2022-10-09T21:41:58.222Z,88.61
2022-10-09T21:44:24.816Z,88.39
2022-10-09T21:46:51.363Z,88.98
2022-10-09T21:49:20.827Z,88.75
2022-10-09T21:51:47.466Z,88.94
2022-10-09T21:54:14.365Z,89.01
2022-10-09T21:56:40.966Z,89.25
2022-10-09T21:59:09.191Z,89.45
2022-10-09T22:01:35.990Z,88.89
2022-10-09T22:04:03.029Z,89.46
2022-10-09T22:06:29.691Z,88.81
2022-10-09T22:08:56.298Z,89.22
2022-10-09T22:11:22.848Z,89.20
2022-10-09T22:13:49.522Z,88.41
2022-10-09T22:16:17.422Z,88.78
2022-10-09T22:18:44.200Z,88.93
2022-10-09T22:21:13.660Z,89.11
2022-10-09T22:23:40.768Z,89.53
2022-10-09T22:26:11.119Z,89.48
2022-10-09T22:28:38.108Z,89.30
2022-10-09T22:31:07.075Z,89.23
2022-10-09T22:33:35.682Z,89.25
2022-10-09T22:36:07.872Z,89.05
2022-10-09T22:38:35.201Z,89.56
2022-10-09T22:41:06.468Z,89.85
2022-10-09T22:43:33.279Z,89.55
2022-10-09T22:45:59.886Z,89.59
2022-10-09T22:48:26.465Z,89.56
2022-10-09T22:50:54.608Z,89.84
2022-10-09T22:53:21.220Z,89.80
2022-10-09T22:55:47.726Z,90.17
2022-10-09T22:58:14.313Z,90.32
2022-10-09T23:00:40.845Z,90.48
2022-10-09T23:03:07.476Z,91.44
2022-10-09T23:05:33.998Z,91.81
2022-10-09T23:08:01.988Z,92.04
2022-10-09T23:10:28.531Z,92.07
2022-10-09T23:12:55.104Z,91.92
2022-10-09T23:15:21.639Z,91.37
2022-10-09T23:17:48.257Z,91.90
2022-10-09T23:20:14.879Z,91.83
2022-10-09T23:22:41.489Z,92.22
2022-10-09T23:25:10.234Z,92.26
2022-10-09T23:27:36.844Z,92.61
2022-10-09T23:30:03.761Z,92.36
2022-10-09T23:32:30.349Z,92.93
2022-10-09T23:34:56.882Z,92.89
2022-10-09T23:37:23.566Z,92.74
2022-10-09T23:39:50.085Z,93.13
2022-10-09T23:42:18.050Z,92.99
2022-10-09T23:44:46.245Z,92.31
2022-10-09T23:47:12.789Z,92.48
2022-10-09T23:49:39.471Z,92.73
2022-10-09T23:52:06.046Z,92.80
2022-10-09T23:54:32.562Z,92.63
2022-10-09T23:56:59.172Z,92.74
2022-10-09T23:59:27.089Z,92.90
